sensor_id;sensor_type;location;lat;lon;timestamp;temperature;humidity
26326;DHT22;14032;52.510;7.342;2022-12-07T00:00:28;4.50;99.90
26326;DHT22;14032;52.510;7.342;2022-12-07T00:02:54;4.50;99.90
26326;DHT22;14032;52.510;7.342;2022-12-07T00:05:19;4.40;99.90
26326;DHT22;14032;52.510;7.342;2022-12-07T00:07:45;4.40;99.90
26326;DHT22;14032;52.510;7.342;2022-12-07T00:10:11;4.40;99.90
26326;DHT22;14032;52.510;7.342;2022-12-07T00:12:36;4.30;99.90
26326;DHT22;14032;52.510;7.342;2022-12-07T00:15:02;4.30;99.90
26326;DHT22;14032;52.510;7.342;2022-12-07T00:17:28;4.30;99.90
26326;DHT22;14032;52.510;7.342;2022-12-07T00:19:53;4.30;99.90
26326;DHT22;14032;52.510;7.342;2022-12-07T00:22:19;4.20;99.90
26326;DHT22;14032;52.510;7.342;2022-12-07T00:24:44;4.20;99.90
26326;DHT22;14032;52.510;7.342;2022-12-07T00:27:10;4.20;99.90
26326;DHT22;14032;52.510;7.342;2022-12-07T00:29:35;4.20;99.90
26326;DHT22;14032;52.510;7.342;2022-12-07T00:32:02;4.20;99.90
26326;DHT22;14032;52.510;7.342;2022-12-07T00:34:28;4.10;99.90
26326;DHT22;14032;52.510;7.342;2022-12-07T00:36:53;4.10;99.90
26326;DHT22;14032;52.510;7.342;2022-12-07T00:39:19;4.10;99.90
26326;DHT22;14032;52.510;7.342;2022-12-07T00:41:46;4.00;99.90
26326;DHT22;14032;52.510;7.342;2022-12-07T00:44:12;4.00;99.90
26326;DHT22;14032;52.510;7.342;2022-12-07T00:46:37;4.00;99.90
26326;DHT22;14032;52.510;7.342;2022-12-07T00:49:03;4.00;99.90
26326;DHT22;14032;52.510;7.342;2022-12-07T00:51:28;4.00;99.90
26326;DHT22;14032;52.510;7.342;2022-12-07T00:53:54;4.00;99.90
26326;DHT22;14032;52.510;7.342;2022-12-07T00:56:25;4.00;99.90
26326;DHT22;14032;52.510;7.342;2022-12-07T00:58:56;3.90;99.90
26326;DHT22;14032;52.510;7.342;2022-12-07T01:01:23;3.90;99.90
26326;DHT22;14032;52.510;7.342;2022-12-07T01:03:49;3.90;99.90
26326;DHT22;14032;52.510;7.342;2022-12-07T01:06:16;3.90;99.90
26326;DHT22;14032;52.510;7.342;2022-12-07T01:08:41;3.90;99.90
26326;DHT22;14032;52.510;7.342;2022-12-07T01:11:11;3.90;99.90
26326;DHT22;14032;52.510;7.342;2022-12-07T01:13:37;3.80;99.90
26326;DHT22;14032;52.510;7.342;2022-12-07T01:16:04;3.80;99.90
26326;DHT22;14032;52.510;7.342;2022-12-07T01:18:31;3.80;99.90
26326;DHT22;14032;52.510;7.342;2022-12-07T01:23:26;3.80;99.90
26326;DHT22;14032;52.510;7.342;2022-12-07T01:26:00;3.80;99.90
26326;DHT22;14032;52.510;7.342;2022-12-07T01:28:26;3.80;99.90
26326;DHT22;14032;52.510;7.342;2022-12-07T01:31:00;3.80;99.90
26326;DHT22;14032;52.510;7.342;2022-12-07T01:33:27;3.70;99.90
26326;DHT22;14032;52.510;7.342;2022-12-07T01:35:53;3.70;99.90
26326;DHT22;14032;52.510;7.342;2022-12-07T01:38:19;3.70;99.90
26326;DHT22;14032;52.510;7.342;2022-12-07T01:40:44;3.70;99.90
26326;DHT22;14032;52.510;7.342;2022-12-07T01:43:16;3.70;99.90
26326;DHT22;14032;52.510;7.342;2022-12-07T01:45:44;3.70;99.90
26326;DHT22;14032;52.510;7.342;2022-12-07T01:48:12;3.70;99.90
26326;DHT22;14032;52.510;7.342;2022-12-07T01:50:40;3.70;99.90
26326;DHT22;14032;52.510;7.342;2022-12-07T01:53:09;3.60;99.90
26326;DHT22;14032;52.510;7.342;2022-12-07T01:55:38;3.60;99.90
26326;DHT22;14032;52.510;7.342;2022-12-07T01:58:05;3.70;99.90
26326;DHT22;14032;52.510;7.342;2022-12-07T02:00:32;3.60;99.90
26326;DHT22;14032;52.510;7.342;2022-12-07T02:03:15;3.60;99.90
26326;DHT22;14032;52.510;7.342;2022-12-07T02:05:42;3.60;99.90
26326;DHT22;14032;52.510;7.342;2022-12-07T02:08:09;3.60;99.90
26326;DHT22;14032;52.510;7.342;2022-12-07T02:10:35;3.60;99.90
26326;DHT22;14032;52.510;7.342;2022-12-07T02:13:21;3.60;99.90
26326;DHT22;14032;52.510;7.342;2022-12-07T02:16:21;3.60;99.90
26326;DHT22;14032;52.510;7.342;2022-12-07T02:19:03;3.60;99.90
26326;DHT22;14032;52.510;7.342;2022-12-07T02:24:28;3.70;99.90
26326;DHT22;14032;52.510;7.342;2022-12-07T02:27:17;3.60;99.90
26326;DHT22;14032;52.510;7.342;2022-12-07T02:30:02;3.60;99.90
26326;DHT22;14032;52.510;7.342;2022-12-07T02:32:54;3.60;99.90
26326;DHT22;14032;52.510;7.342;2022-12-07T02:40:42;3.70;99.90
26326;DHT22;14032;52.510;7.342;2022-12-07T02:46:20;3.60;99.90
26326;DHT22;14032;52.510;7.342;2022-12-07T02:48:47;3.60;99.90
26326;DHT22;14032;52.510;7.342;2022-12-07T02:51:13;3.60;99.90
26326;DHT22;14032;52.510;7.342;2022-12-07T02:53:41;3.60;99.90
26326;DHT22;14032;52.510;7.342;2022-12-07T03:02:29;3.50;99.90
26326;DHT22;14032;52.510;7.342;2022-12-07T03:11:21;3.50;99.90
26326;DHT22;14032;52.510;7.342;2022-12-07T03:16:27;3.50;99.90
26326;DHT22;14032;52.510;7.342;2022-12-07T03:19:19;3.50;99.90
26326;DHT22;14032;52.510;7.342;2022-12-07T03:21:50;3.50;99.90
26326;DHT22;14032;52.510;7.342;2022-12-07T03:24:22;3.50;99.90
26326;DHT22;14032;52.510;7.342;2022-12-07T03:27:00;3.50;99.90
26326;DHT22;14032;52.510;7.342;2022-12-07T03:29:30;3.40;99.90
26326;DHT22;14032;52.510;7.342;2022-12-07T03:32:08;3.50;99.90
26326;DHT22;14032;52.510;7.342;2022-12-07T03:35:09;3.50;99.90
26326;DHT22;14032;52.510;7.342;2022-12-07T03:37:40;3.50;99.90
26326;DHT22;14032;52.510;7.342;2022-12-07T03:42:57;3.50;99.90
26326;DHT22;14032;52.510;7.342;2022-12-07T03:45:38;3.50;99.90
26326;DHT22;14032;52.510;7.342;2022-12-07T03:48:41;3.50;99.90
26326;DHT22;14032;52.510;7.342;2022-12-07T03:51:28;3.40;99.90
26326;DHT22;14032;52.510;7.342;2022-12-07T03:56:57;3.40;99.90
26326;DHT22;14032;52.510;7.342;2022-12-07T03:59:24;3.40;99.90
26326;DHT22;14032;52.510;7.342;2022-12-07T04:01:55;3.40;99.90
26326;DHT22;14032;52.510;7.342;2022-12-07T04:04:23;3.40;99.90
26326;DHT22;14032;52.510;7.342;2022-12-07T04:06:49;3.40;99.90
26326;DHT22;14032;52.510;7.342;2022-12-07T04:09:16;3.40;99.90
26326;DHT22;14032;52.510;7.342;2022-12-07T04:11:42;3.40;99.90
26326;DHT22;14032;52.510;7.342;2022-12-07T04:14:08;3.40;99.90
26326;DHT22;14032;52.510;7.342;2022-12-07T04:16:54;3.40;99.90
26326;DHT22;14032;52.510;7.342;2022-12-07T04:19:28;3.50;99.90
26326;DHT22;14032;52.510;7.342;2022-12-07T04:21:55;3.40;99.90
26326;DHT22;14032;52.510;7.342;2022-12-07T04:24:21;3.40;99.90
26326;DHT22;14032;52.510;7.342;2022-12-07T04:26:48;3.40;99.90
26326;DHT22;14032;52.510;7.342;2022-12-07T04:29:14;3.40;99.90
26326;DHT22;14032;52.510;7.342;2022-12-07T04:31:40;3.40;99.90
26326;DHT22;14032;52.510;7.342;2022-12-07T04:34:06;3.40;99.90
26326;DHT22;14032;52.510;7.342;2022-12-07T04:36:32;3.40;99.90
26326;DHT22;14032;52.510;7.342;2022-12-07T04:38:59;3.40;99.90
26326;DHT22;14032;52.510;7.342;2022-12-07T04:41:25;3.40;99.90
26326;DHT22;14032;52.510;7.342;2022-12-07T04:43:59;3.40;99.90
26326;DHT22;14032;52.510;7.342;2022-12-07T04:46:26;3.40;99.90
26326;DHT22;14032;52.510;7.342;2022-12-07T04:48:53;3.40;99.90
26326;DHT22;14032;52.510;7.342;2022-12-07T04:51:25;3.40;99.90
26326;DHT22;14032;52.510;7.342;2022-12-07T04:53:51;3.40;99.90
26326;DHT22;14032;52.510;7.342;2022-12-07T04:56:17;3.40;99.90
26326;DHT22;14032;52.510;7.342;2022-12-07T04:58:44;3.40;99.90
26326;DHT22;14032;52.510;7.342;2022-12-07T05:01:11;3.40;99.90
26326;DHT22;14032;52.510;7.342;2022-12-07T05:03:37;3.40;99.90
26326;DHT22;14032;52.510;7.342;2022-12-07T05:06:04;3.50;99.90
26326;DHT22;14032;52.510;7.342;2022-12-07T05:08:29;3.40;99.90
26326;DHT22;14032;52.510;7.342;2022-12-07T05:10:55;3.40;99.90
26326;DHT22;14032;52.510;7.342;2022-12-07T05:13:21;3.40;99.90
26326;DHT22;14032;52.510;7.342;2022-12-07T05:15:47;3.40;99.90
26326;DHT22;14032;52.510;7.342;2022-12-07T05:18:14;3.40;99.90
26326;DHT22;14032;52.510;7.342;2022-12-07T05:20:40;3.40;99.90
26326;DHT22;14032;52.510;7.342;2022-12-07T05:23:05;3.40;99.90
26326;DHT22;14032;52.510;7.342;2022-12-07T05:25:31;3.40;99.90
26326;DHT22;14032;52.510;7.342;2022-12-07T05:27:57;3.30;99.90
26326;DHT22;14032;52.510;7.342;2022-12-07T05:30:24;3.30;99.90
26326;DHT22;14032;52.510;7.342;2022-12-07T05:32:49;3.30;99.90
26326;DHT22;14032;52.510;7.342;2022-12-07T05:35:16;3.30;99.90
26326;DHT22;14032;52.510;7.342;2022-12-07T05:37:42;3.30;99.90
26326;DHT22;14032;52.510;7.342;2022-12-07T05:40:08;3.30;99.90
26326;DHT22;14032;52.510;7.342;2022-12-07T05:42:34;3.30;99.90
26326;DHT22;14032;52.510;7.342;2022-12-07T05:44:59;3.30;99.90
26326;DHT22;14032;52.510;7.342;2022-12-07T05:47:25;3.30;99.90
26326;DHT22;14032;52.510;7.342;2022-12-07T05:49:50;3.20;99.90
26326;DHT22;14032;52.510;7.342;2022-12-07T05:52:16;3.20;99.90
26326;DHT22;14032;52.510;7.342;2022-12-07T05:54:42;3.20;99.90
26326;DHT22;14032;52.510;7.342;2022-12-07T05:57:07;3.20;99.90
26326;DHT22;14032;52.510;7.342;2022-12-07T05:59:33;3.20;99.90
26326;DHT22;14032;52.510;7.342;2022-12-07T06:02:04;3.10;99.90
26326;DHT22;14032;52.510;7.342;2022-12-07T06:04:32;3.10;99.90
26326;DHT22;14032;52.510;7.342;2022-12-07T06:06:58;3.10;99.90
26326;DHT22;14032;52.510;7.342;2022-12-07T06:09:25;3.10;99.90
26326;DHT22;14032;52.510;7.342;2022-12-07T06:11:51;3.10;99.90
26326;DHT22;14032;52.510;7.342;2022-12-07T06:14:36;3.10;99.90
26326;DHT22;14032;52.510;7.342;2022-12-07T06:17:02;3.10;99.90
26326;DHT22;14032;52.510;7.342;2022-12-07T06:19:28;3.10;99.90
26326;DHT22;14032;52.510;7.342;2022-12-07T06:21:54;3.10;99.90
26326;DHT22;14032;52.510;7.342;2022-12-07T06:24:19;3.00;99.90
26326;DHT22;14032;52.510;7.342;2022-12-07T06:26:45;3.00;99.90
26326;DHT22;14032;52.510;7.342;2022-12-07T06:29:12;3.00;99.90
26326;DHT22;14032;52.510;7.342;2022-12-07T06:31:38;3.00;99.90
26326;DHT22;14032;52.510;7.342;2022-12-07T06:34:08;3.00;99.90
26326;DHT22;14032;52.510;7.342;2022-12-07T06:36:34;3.00;99.90
26326;DHT22;14032;52.510;7.342;2022-12-07T06:39:00;3.00;99.90
26326;DHT22;14032;52.510;7.342;2022-12-07T06:41:26;3.00;99.90
26326;DHT22;14032;52.510;7.342;2022-12-07T06:43:51;3.00;99.90
26326;DHT22;14032;52.510;7.342;2022-12-07T06:46:17;3.00;99.90
26326;DHT22;14032;52.510;7.342;2022-12-07T06:48:43;3.00;99.90
26326;DHT22;14032;52.510;7.342;2022-12-07T06:51:09;3.00;99.90
26326;DHT22;14032;52.510;7.342;2022-12-07T06:53:35;3.00;99.90
26326;DHT22;14032;52.510;7.342;2022-12-07T06:56:01;2.90;99.90
26326;DHT22;14032;52.510;7.342;2022-12-07T06:58:27;2.90;99.90
26326;DHT22;14032;52.510;7.342;2022-12-07T07:00:52;2.90;99.90
26326;DHT22;14032;52.510;7.342;2022-12-07T07:03:18;2.90;99.90
26326;DHT22;14032;52.510;7.342;2022-12-07T07:05:44;2.90;99.90
26326;DHT22;14032;52.510;7.342;2022-12-07T07:08:10;2.80;99.90
26326;DHT22;14032;52.510;7.342;2022-12-07T07:10:36;2.80;99.90
26326;DHT22;14032;52.510;7.342;2022-12-07T07:13:03;2.80;99.90
26326;DHT22;14032;52.510;7.342;2022-12-07T07:15:29;2.80;99.90
26326;DHT22;14032;52.510;7.342;2022-12-07T07:17:55;2.80;99.90
26326;DHT22;14032;52.510;7.342;2022-12-07T07:20:21;2.80;99.90
26326;DHT22;14032;52.510;7.342;2022-12-07T07:22:48;2.80;99.90
26326;DHT22;14032;52.510;7.342;2022-12-07T07:25:14;2.70;99.90
26326;DHT22;14032;52.510;7.342;2022-12-07T07:27:40;2.70;99.90
26326;DHT22;14032;52.510;7.342;2022-12-07T07:30:07;2.70;99.90
26326;DHT22;14032;52.510;7.342;2022-12-07T07:32:33;2.70;99.90
26326;DHT22;14032;52.510;7.342;2022-12-07T07:34:58;2.70;99.90
26326;DHT22;14032;52.510;7.342;2022-12-07T07:37:24;2.60;99.90
26326;DHT22;14032;52.510;7.342;2022-12-07T07:39:50;2.60;99.90
26326;DHT22;14032;52.510;7.342;2022-12-07T07:42:15;2.60;99.90
26326;DHT22;14032;52.510;7.342;2022-12-07T07:44:41;2.60;99.90
26326;DHT22;14032;52.510;7.342;2022-12-07T07:47:06;2.60;99.90
26326;DHT22;14032;52.510;7.342;2022-12-07T07:49:32;2.60;99.90
26326;DHT22;14032;52.510;7.342;2022-12-07T07:51:58;2.60;99.90
26326;DHT22;14032;52.510;7.342;2022-12-07T07:54:23;2.60;99.90
26326;DHT22;14032;52.510;7.342;2022-12-07T07:56:49;2.60;99.90
26326;DHT22;14032;52.510;7.342;2022-12-07T07:59:15;2.60;99.90
26326;DHT22;14032;52.510;7.342;2022-12-07T08:01:40;2.60;99.90
26326;DHT22;14032;52.510;7.342;2022-12-07T08:04:06;2.60;99.90
26326;DHT22;14032;52.510;7.342;2022-12-07T08:06:32;2.60;99.90
26326;DHT22;14032;52.510;7.342;2022-12-07T08:08:57;2.60;99.90
26326;DHT22;14032;52.510;7.342;2022-12-07T08:11:23;2.60;99.90
26326;DHT22;14032;52.510;7.342;2022-12-07T08:13:49;2.60;99.90
26326;DHT22;14032;52.510;7.342;2022-12-07T08:16:15;2.60;99.90
26326;DHT22;14032;52.510;7.342;2022-12-07T08:18:42;2.70;99.90
26326;DHT22;14032;52.510;7.342;2022-12-07T08:21:11;2.70;99.90
26326;DHT22;14032;52.510;7.342;2022-12-07T08:23:37;2.70;99.90
26326;DHT22;14032;52.510;7.342;2022-12-07T08:26:03;2.70;99.90
26326;DHT22;14032;52.510;7.342;2022-12-07T08:28:29;2.70;99.90
26326;DHT22;14032;52.510;7.342;2022-12-07T08:31:06;2.70;99.90
26326;DHT22;14032;52.510;7.342;2022-12-07T08:33:32;2.80;99.90
26326;DHT22;14032;52.510;7.342;2022-12-07T08:36:07;2.80;99.90
26326;DHT22;14032;52.510;7.342;2022-12-07T08:38:34;2.90;99.90
26326;DHT22;14032;52.510;7.342;2022-12-07T08:41:00;2.90;99.90
26326;DHT22;14032;52.510;7.342;2022-12-07T08:43:26;3.00;99.90
26326;DHT22;14032;52.510;7.342;2022-12-07T08:46:03;3.00;99.90
26326;DHT22;14032;52.510;7.342;2022-12-07T08:48:29;3.00;99.90
26326;DHT22;14032;52.510;7.342;2022-12-07T08:50:55;3.00;99.90
26326;DHT22;14032;52.510;7.342;2022-12-07T08:53:21;3.00;99.90
26326;DHT22;14032;52.510;7.342;2022-12-07T08:55:48;3.10;99.90
26326;DHT22;14032;52.510;7.342;2022-12-07T08:58:14;3.10;99.90
26326;DHT22;14032;52.510;7.342;2022-12-07T09:00:39;3.10;99.90
26326;DHT22;14032;52.510;7.342;2022-12-07T09:03:05;3.10;99.90
26326;DHT22;14032;52.510;7.342;2022-12-07T09:05:32;3.20;99.90
26326;DHT22;14032;52.510;7.342;2022-12-07T09:08:01;3.20;99.90
26326;DHT22;14032;52.510;7.342;2022-12-07T09:10:27;3.20;99.90
26326;DHT22;14032;52.510;7.342;2022-12-07T09:12:53;3.20;99.90
26326;DHT22;14032;52.510;7.342;2022-12-07T09:15:19;3.20;99.90
26326;DHT22;14032;52.510;7.342;2022-12-07T09:17:44;3.30;99.90
26326;DHT22;14032;52.510;7.342;2022-12-07T09:20:10;3.30;99.90
26326;DHT22;14032;52.510;7.342;2022-12-07T09:22:36;3.30;99.90
26326;DHT22;14032;52.510;7.342;2022-12-07T09:25:03;3.30;99.90
26326;DHT22;14032;52.510;7.342;2022-12-07T09:27:29;3.40;99.90
26326;DHT22;14032;52.510;7.342;2022-12-07T09:29:54;3.40;99.90
26326;DHT22;14032;52.510;7.342;2022-12-07T09:32:21;3.50;99.90
26326;DHT22;14032;52.510;7.342;2022-12-07T09:34:47;3.50;99.90
26326;DHT22;14032;52.510;7.342;2022-12-07T09:37:12;3.50;99.90
26326;DHT22;14032;52.510;7.342;2022-12-07T09:39:39;3.50;99.90
26326;DHT22;14032;52.510;7.342;2022-12-07T09:42:05;3.50;99.90
26326;DHT22;14032;52.510;7.342;2022-12-07T09:44:33;3.50;99.90
26326;DHT22;14032;52.510;7.342;2022-12-07T09:46:59;3.50;99.90
26326;DHT22;14032;52.510;7.342;2022-12-07T09:49:28;3.50;99.90
26326;DHT22;14032;52.510;7.342;2022-12-07T09:52:17;3.50;99.90
26326;DHT22;14032;52.510;7.342;2022-12-07T09:54:49;3.50;99.90
26326;DHT22;14032;52.510;7.342;2022-12-07T09:57:16;3.50;99.90
26326;DHT22;14032;52.510;7.342;2022-12-07T09:59:41;3.60;99.90
26326;DHT22;14032;52.510;7.342;2022-12-07T10:02:35;3.70;99.90
26326;DHT22;14032;52.510;7.342;2022-12-07T10:05:10;3.70;99.90
26326;DHT22;14032;52.510;7.342;2022-12-07T10:07:37;3.70;99.90
26326;DHT22;14032;52.510;7.342;2022-12-07T10:10:05;3.70;99.90
26326;DHT22;14032;52.510;7.342;2022-12-07T10:12:55;3.70;99.90
26326;DHT22;14032;52.510;7.342;2022-12-07T10:15:20;3.80;99.90
26326;DHT22;14032;52.510;7.342;2022-12-07T10:17:49;3.80;99.90
26326;DHT22;14032;52.510;7.342;2022-12-07T10:20:21;3.80;99.90
26326;DHT22;14032;52.510;7.342;2022-12-07T10:23:05;3.90;99.90
26326;DHT22;14032;52.510;7.342;2022-12-07T10:25:33;3.90;99.90
26326;DHT22;14032;52.510;7.342;2022-12-07T10:28:18;3.90;99.90
26326;DHT22;14032;52.510;7.342;2022-12-07T10:35:53;3.90;99.90
26326;DHT22;14032;52.510;7.342;2022-12-07T10:38:19;3.90;99.90
26326;DHT22;14032;52.510;7.342;2022-12-07T10:40:45;3.90;99.90
26326;DHT22;14032;52.510;7.342;2022-12-07T10:51:44;4.10;99.90
26326;DHT22;14032;52.510;7.342;2022-12-07T10:54:43;4.20;99.90
26326;DHT22;14032;52.510;7.342;2022-12-07T10:57:25;4.30;99.90
26326;DHT22;14032;52.510;7.342;2022-12-07T11:05:23;4.60;99.90
26326;DHT22;14032;52.510;7.342;2022-12-07T11:08:08;4.60;99.90
26326;DHT22;14032;52.510;7.342;2022-12-07T11:16:21;4.70;99.90
26326;DHT22;14032;52.510;7.342;2022-12-07T11:24:18;4.90;99.90
26326;DHT22;14032;52.510;7.342;2022-12-07T11:27:14;4.90;99.90
26326;DHT22;14032;52.510;7.342;2022-12-07T11:30:09;4.90;99.90
26326;DHT22;14032;52.510;7.342;2022-12-07T11:33:01;4.90;99.90
26326;DHT22;14032;52.510;7.342;2022-12-07T11:35:42;4.90;99.90
26326;DHT22;14032;52.510;7.342;2022-12-07T11:38:14;5.00;99.90
26326;DHT22;14032;52.510;7.342;2022-12-07T11:40:44;5.00;99.90
26326;DHT22;14032;52.510;7.342;2022-12-07T11:43:31;5.00;99.90
26326;DHT22;14032;52.510;7.342;2022-12-07T11:46:07;5.00;99.90
26326;DHT22;14032;52.510;7.342;2022-12-07T11:48:38;5.10;99.90
26326;DHT22;14032;52.510;7.342;2022-12-07T11:51:09;5.10;99.90
26326;DHT22;14032;52.510;7.342;2022-12-07T11:53:58;5.10;99.90
26326;DHT22;14032;52.510;7.342;2022-12-07T11:56:26;5.20;99.90
26326;DHT22;14032;52.510;7.342;2022-12-07T11:59:03;5.20;99.90
26326;DHT22;14032;52.510;7.342;2022-12-07T12:01:41;5.20;99.90
26326;DHT22;14032;52.510;7.342;2022-12-07T12:06:37;5.20;99.90
26326;DHT22;14032;52.510;7.342;2022-12-07T12:23:05;5.30;99.90
26326;DHT22;14032;52.510;7.342;2022-12-07T12:25:45;5.30;99.90
26326;DHT22;14032;52.510;7.342;2022-12-07T12:28:39;5.30;99.90
26326;DHT22;14032;52.510;7.342;2022-12-07T12:33:31;5.30;99.90
26326;DHT22;14032;52.510;7.342;2022-12-07T12:47:00;5.50;99.90
26326;DHT22;14032;52.510;7.342;2022-12-07T12:49:34;5.50;99.90
26326;DHT22;14032;52.510;7.342;2022-12-07T12:54:57;5.60;99.90
26326;DHT22;14032;52.510;7.342;2022-12-07T12:57:28;5.70;99.90
26326;DHT22;14032;52.510;7.342;2022-12-07T12:59:59;5.80;99.90
26326;DHT22;14032;52.510;7.342;2022-12-07T13:02:37;5.90;99.90
26326;DHT22;14032;52.510;7.342;2022-12-07T13:05:16;5.90;99.90
26326;DHT22;14032;52.510;7.342;2022-12-07T13:18:01;5.90;99.90
26326;DHT22;14032;52.510;7.342;2022-12-07T13:20:47;5.80;99.90
26326;DHT22;14032;52.510;7.342;2022-12-07T13:23:18;5.80;99.90
26326;DHT22;14032;52.510;7.342;2022-12-07T13:25:51;5.90;99.90
26326;DHT22;14032;52.510;7.342;2022-12-07T13:28:20;5.90;99.90
26326;DHT22;14032;52.510;7.342;2022-12-07T13:33:47;5.80;99.90
26326;DHT22;14032;52.510;7.342;2022-12-07T13:36:25;5.80;99.90
26326;DHT22;14032;52.510;7.342;2022-12-07T13:38:59;5.70;99.90
26326;DHT22;14032;52.510;7.342;2022-12-07T13:41:27;5.70;99.90
26326;DHT22;14032;52.510;7.342;2022-12-07T13:44:01;5.60;99.90
26326;DHT22;14032;52.510;7.342;2022-12-07T13:46:47;5.60;99.90
26326;DHT22;14032;52.510;7.342;2022-12-07T13:51:51;5.50;99.90
26326;DHT22;14032;52.510;7.342;2022-12-07T13:54:17;5.50;99.90
26326;DHT22;14032;52.510;7.342;2022-12-07T13:56:44;5.50;99.90
26326;DHT22;14032;52.510;7.342;2022-12-07T13:59:19;5.50;99.90
26326;DHT22;14032;52.510;7.342;2022-12-07T14:01:47;5.40;99.90
26326;DHT22;14032;52.510;7.342;2022-12-07T14:04:34;5.40;99.90
26326;DHT22;14032;52.510;7.342;2022-12-07T14:07:15;5.40;99.90
26326;DHT22;14032;52.510;7.342;2022-12-07T14:09:54;5.40;99.90
26326;DHT22;14032;52.510;7.342;2022-12-07T14:12:19;5.40;99.90
26326;DHT22;14032;52.510;7.342;2022-12-07T14:14:48;5.40;99.90
26326;DHT22;14032;52.510;7.342;2022-12-07T14:17:17;5.40;99.90
26326;DHT22;14032;52.510;7.342;2022-12-07T14:25:25;5.30;99.90
26326;DHT22;14032;52.510;7.342;2022-12-07T14:27:54;5.30;99.90
26326;DHT22;14032;52.510;7.342;2022-12-07T14:30:22;5.20;99.90
26326;DHT22;14032;52.510;7.342;2022-12-07T14:32:53;5.20;99.90
26326;DHT22;14032;52.510;7.342;2022-12-07T14:35:19;5.20;99.90
26326;DHT22;14032;52.510;7.342;2022-12-07T14:37:47;5.20;99.90
26326;DHT22;14032;52.510;7.342;2022-12-07T14:40:19;5.20;99.90
26326;DHT22;14032;52.510;7.342;2022-12-07T14:42:46;5.10;99.90
26326;DHT22;14032;52.510;7.342;2022-12-07T14:45:18;5.10;99.90
26326;DHT22;14032;52.510;7.342;2022-12-07T14:47:44;5.10;99.90
26326;DHT22;14032;52.510;7.342;2022-12-07T14:50:15;5.10;99.90
26326;DHT22;14032;52.510;7.342;2022-12-07T14:52:43;5.00;99.90
26326;DHT22;14032;52.510;7.342;2022-12-07T14:55:22;5.00;99.90
26326;DHT22;14032;52.510;7.342;2022-12-07T14:57:48;5.00;99.90
26326;DHT22;14032;52.510;7.342;2022-12-07T15:00:15;5.00;99.90
26326;DHT22;14032;52.510;7.342;2022-12-07T15:02:43;4.90;99.90
26326;DHT22;14032;52.510;7.342;2022-12-07T15:05:08;4.90;99.90
26326;DHT22;14032;52.510;7.342;2022-12-07T15:07:34;4.90;99.90
26326;DHT22;14032;52.510;7.342;2022-12-07T15:10:00;4.90;99.90
26326;DHT22;14032;52.510;7.342;2022-12-07T15:12:25;4.90;99.90
26326;DHT22;14032;52.510;7.342;2022-12-07T15:14:51;4.90;99.90
26326;DHT22;14032;52.510;7.342;2022-12-07T15:17:17;4.80;99.90
26326;DHT22;14032;52.510;7.342;2022-12-07T15:19:42;4.70;99.90
26326;DHT22;14032;52.510;7.342;2022-12-07T15:22:08;4.60;99.90
26326;DHT22;14032;52.510;7.342;2022-12-07T15:24:36;4.60;99.90
26326;DHT22;14032;52.510;7.342;2022-12-07T15:27:02;4.50;99.90
26326;DHT22;14032;52.510;7.342;2022-12-07T15:29:29;4.50;99.90
26326;DHT22;14032;52.510;7.342;2022-12-07T15:31:55;4.40;99.90
26326;DHT22;14032;52.510;7.342;2022-12-07T15:34:21;4.40;99.90
26326;DHT22;14032;52.510;7.342;2022-12-07T15:36:47;4.30;99.90
26326;DHT22;14032;52.510;7.342;2022-12-07T15:39:12;4.20;99.90
26326;DHT22;14032;52.510;7.342;2022-12-07T15:41:38;4.20;99.90
26326;DHT22;14032;52.510;7.342;2022-12-07T15:44:04;4.20;99.90
26326;DHT22;14032;52.510;7.342;2022-12-07T15:46:48;4.10;99.90
26326;DHT22;14032;52.510;7.342;2022-12-07T15:49:17;4.10;99.90
26326;DHT22;14032;52.510;7.342;2022-12-07T15:51:44;4.00;99.90
26326;DHT22;14032;52.510;7.342;2022-12-07T15:54:21;4.00;99.90
26326;DHT22;14032;52.510;7.342;2022-12-07T15:56:48;4.00;99.90
26326;DHT22;14032;52.510;7.342;2022-12-07T15:59:14;4.00;99.90
26326;DHT22;14032;52.510;7.342;2022-12-07T16:01:40;4.00;99.90
26326;DHT22;14032;52.510;7.342;2022-12-07T16:04:05;4.00;99.90
26326;DHT22;14032;52.510;7.342;2022-12-07T16:06:31;3.90;99.90
26326;DHT22;14032;52.510;7.342;2022-12-07T16:08:57;3.90;99.90
26326;DHT22;14032;52.510;7.342;2022-12-07T16:11:22;3.90;99.90
26326;DHT22;14032;52.510;7.342;2022-12-07T16:13:48;3.90;99.90
26326;DHT22;14032;52.510;7.342;2022-12-07T16:16:16;3.90;99.90
26326;DHT22;14032;52.510;7.342;2022-12-07T16:18:42;3.90;99.90
26326;DHT22;14032;52.510;7.342;2022-12-07T16:21:08;3.80;99.90
26326;DHT22;14032;52.510;7.342;2022-12-07T16:23:34;3.80;99.90
26326;DHT22;14032;52.510;7.342;2022-12-07T16:26:09;3.80;99.90
26326;DHT22;14032;52.510;7.342;2022-12-07T16:28:35;3.80;99.90
26326;DHT22;14032;52.510;7.342;2022-12-07T16:31:06;3.80;99.90
26326;DHT22;14032;52.510;7.342;2022-12-07T16:33:36;3.80;99.90
26326;DHT22;14032;52.510;7.342;2022-12-07T16:36:03;3.80;99.90
26326;DHT22;14032;52.510;7.342;2022-12-07T16:38:29;3.80;99.90
26326;DHT22;14032;52.510;7.342;2022-12-07T16:40:55;3.80;99.90
26326;DHT22;14032;52.510;7.342;2022-12-07T16:43:20;3.80;99.90
26326;DHT22;14032;52.510;7.342;2022-12-07T16:45:46;3.80;99.90
26326;DHT22;14032;52.510;7.342;2022-12-07T16:48:13;3.80;99.90
26326;DHT22;14032;52.510;7.342;2022-12-07T16:50:40;3.80;99.90
26326;DHT22;14032;52.510;7.342;2022-12-07T16:53:09;3.80;99.90
26326;DHT22;14032;52.510;7.342;2022-12-07T16:55:40;3.80;99.90
26326;DHT22;14032;52.510;7.342;2022-12-07T16:58:06;3.80;99.90
26326;DHT22;14032;52.510;7.342;2022-12-07T17:00:32;3.80;99.90
26326;DHT22;14032;52.510;7.342;2022-12-07T17:02:57;3.70;99.90
26326;DHT22;14032;52.510;7.342;2022-12-07T17:05:23;3.70;99.90
26326;DHT22;14032;52.510;7.342;2022-12-07T17:07:50;3.80;99.90
26326;DHT22;14032;52.510;7.342;2022-12-07T17:10:15;3.70;99.90
26326;DHT22;14032;52.510;7.342;2022-12-07T17:12:41;3.70;99.90
26326;DHT22;14032;52.510;7.342;2022-12-07T17:15:07;3.70;99.90
26326;DHT22;14032;52.510;7.342;2022-12-07T17:17:47;3.70;99.90
26326;DHT22;14032;52.510;7.342;2022-12-07T17:20:16;3.70;99.90
26326;DHT22;14032;52.510;7.342;2022-12-07T17:22:43;3.60;99.90
26326;DHT22;14032;52.510;7.342;2022-12-07T17:25:09;3.60;99.90
26326;DHT22;14032;52.510;7.342;2022-12-07T17:27:35;3.60;99.90
26326;DHT22;14032;52.510;7.342;2022-12-07T17:30:02;3.60;99.90
26326;DHT22;14032;52.510;7.342;2022-12-07T17:32:28;3.60;99.90
26326;DHT22;14032;52.510;7.342;2022-12-07T17:34:53;3.60;99.90
26326;DHT22;14032;52.510;7.342;2022-12-07T17:37:19;3.50;99.90
26326;DHT22;14032;52.510;7.342;2022-12-07T17:39:44;3.50;99.90
26326;DHT22;14032;52.510;7.342;2022-12-07T17:42:10;3.50;99.90
26326;DHT22;14032;52.510;7.342;2022-12-07T17:44:54;3.50;99.90
26326;DHT22;14032;52.510;7.342;2022-12-07T17:47:20;3.50;99.90
26326;DHT22;14032;52.510;7.342;2022-12-07T17:49:46;3.50;99.90
26326;DHT22;14032;52.510;7.342;2022-12-07T17:52:12;3.50;99.90
26326;DHT22;14032;52.510;7.342;2022-12-07T17:54:57;3.50;99.90
26326;DHT22;14032;52.510;7.342;2022-12-07T17:57:23;3.60;99.90